sensor_id;sensor_type;location;lat;lon;timestamp;P1;durP1;ratioP1;P2;durP2;ratioP2
10473;SDS011;5284;50.446;7.904;2022-12-29T00:01:26;7.03;;;1.60;;
10473;SDS011;5284;50.446;7.904;2022-12-29T00:06:29;6.80;;;1.30;;
10473;SDS011;5284;50.446;7.904;2022-12-29T00:11:32;2.92;;;1.40;;
10473;SDS011;5284;50.446;7.904;2022-12-29T00:16:37;3.70;;;1.50;;
10473;SDS011;5284;50.446;7.904;2022-12-29T00:21:42;3.50;;;1.75;;
10473;SDS011;5284;50.446;7.904;2022-12-29T00:27:10;6.88;;;1.58;;
10473;SDS011;5284;50.446;7.904;2022-12-29T00:32:33;4.35;;;1.60;;
10473;SDS011;5284;50.446;7.904;2022-12-29T00:37:54;3.70;;;1.45;;
10473;SDS011;5284;50.446;7.904;2022-12-29T00:43:18;3.35;;;1.70;;
10473;SDS011;5284;50.446;7.904;2022-12-29T00:48:40;4.93;;;1.42;;
10473;SDS011;5284;50.446;7.904;2022-12-29T00:54:00;2.08;;;1.70;;
10473;SDS011;5284;50.446;7.904;2022-12-29T00:59:04;3.45;;;2.00;;
10473;SDS011;5284;50.446;7.904;2022-12-29T01:17:07;3.35;;;2.00;;
10473;SDS011;5284;50.446;7.904;2022-12-29T01:22:10;3.42;;;1.75;;
10473;SDS011;5284;50.446;7.904;2022-12-29T01:27:14;3.92;;;1.77;;
10473;SDS011;5284;50.446;7.904;2022-12-29T01:32:19;5.70;;;2.05;;
10473;SDS011;5284;50.446;7.904;2022-12-29T01:37:22;4.25;;;1.88;;
10473;SDS011;5284;50.446;7.904;2022-12-29T01:42:26;3.28;;;1.42;;
10473;SDS011;5284;50.446;7.904;2022-12-29T01:47:32;4.40;;;1.48;;
10473;SDS011;5284;50.446;7.904;2022-12-29T01:52:40;2.35;;;1.55;;
10473;SDS011;5284;50.446;7.904;2022-12-29T01:57:47;4.03;;;2.05;;
10473;SDS011;5284;50.446;7.904;2022-12-29T02:02:55;2.03;;;1.38;;
10473;SDS011;5284;50.446;7.904;2022-12-29T02:07:58;5.38;;;1.48;;
10473;SDS011;5284;50.446;7.904;2022-12-29T02:13:02;3.63;;;1.77;;
10473;SDS011;5284;50.446;7.904;2022-12-29T02:18:15;5.15;;;1.48;;
10473;SDS011;5284;50.446;7.904;2022-12-29T02:23:36;4.10;;;1.20;;
10473;SDS011;5284;50.446;7.904;2022-12-29T02:34:35;3.78;;;1.70;;
10473;SDS011;5284;50.446;7.904;2022-12-29T02:39:47;13.55;;;2.20;;
10473;SDS011;5284;50.446;7.904;2022-12-29T02:44:57;3.28;;;1.50;;
10473;SDS011;5284;50.446;7.904;2022-12-29T02:50:11;2.30;;;1.33;;
10473;SDS011;5284;50.446;7.904;2022-12-29T02:55:19;1.58;;;1.48;;
10473;SDS011;5284;50.446;7.904;2022-12-29T03:00:23;7.90;;;1.30;;
10473;SDS011;5284;50.446;7.904;2022-12-29T03:05:32;4.38;;;1.67;;
10473;SDS011;5284;50.446;7.904;2022-12-29T03:10:47;5.05;;;1.40;;
10473;SDS011;5284;50.446;7.904;2022-12-29T03:15:55;2.63;;;1.40;;
10473;SDS011;5284;50.446;7.904;2022-12-29T03:21:08;2.60;;;1.63;;
10473;SDS011;5284;50.446;7.904;2022-12-29T03:26:16;3.30;;;1.75;;
10473;SDS011;5284;50.446;7.904;2022-12-29T03:36:30;1.50;;;1.10;;
10473;SDS011;5284;50.446;7.904;2022-12-29T03:41:42;0.85;;;0.73;;
10473;SDS011;5284;50.446;7.904;2022-12-29T03:46:47;1.92;;;1.05;;
10473;SDS011;5284;50.446;7.904;2022-12-29T03:51:52;3.20;;;1.23;;
10473;SDS011;5284;50.446;7.904;2022-12-29T03:56:56;5.03;;;1.15;;
10473;SDS011;5284;50.446;7.904;2022-12-29T04:02:11;1.77;;;0.90;;
10473;SDS011;5284;50.446;7.904;2022-12-29T04:07:17;3.75;;;1.15;;
10473;SDS011;5284;50.446;7.904;2022-12-29T04:12:21;1.75;;;1.02;;
10473;SDS011;5284;50.446;7.904;2022-12-29T04:17:24;3.05;;;1.25;;
10473;SDS011;5284;50.446;7.904;2022-12-29T04:22:29;3.45;;;1.08;;
10473;SDS011;5284;50.446;7.904;2022-12-29T04:27:32;1.77;;;1.10;;
10473;SDS011;5284;50.446;7.904;2022-12-29T04:33:09;2.10;;;1.20;;
10473;SDS011;5284;50.446;7.904;2022-12-29T04:38:15;4.20;;;1.15;;
10473;SDS011;5284;50.446;7.904;2022-12-29T04:43:20;6.37;;;1.40;;
10473;SDS011;5284;50.446;7.904;2022-12-29T04:48:46;3.25;;;1.33;;
10473;SDS011;5284;50.446;7.904;2022-12-29T04:54:23;4.47;;;1.20;;
10473;SDS011;5284;50.446;7.904;2022-12-29T04:59:39;1.90;;;1.00;;
10473;SDS011;5284;50.446;7.904;2022-12-29T05:04:43;2.90;;;1.65;;
10473;SDS011;5284;50.446;7.904;2022-12-29T05:09:47;2.35;;;1.45;;
10473;SDS011;5284;50.446;7.904;2022-12-29T05:14:50;4.70;;;1.30;;
10473;SDS011;5284;50.446;7.904;2022-12-29T05:19:53;6.13;;;1.45;;
10473;SDS011;5284;50.446;7.904;2022-12-29T05:24:59;4.05;;;1.70;;
10473;SDS011;5284;50.446;7.904;2022-12-29T05:30:04;2.22;;;1.42;;
10473;SDS011;5284;50.446;7.904;2022-12-29T05:35:09;8.60;;;1.30;;
10473;SDS011;5284;50.446;7.904;2022-12-29T05:40:14;5.68;;;1.88;;
10473;SDS011;5284;50.446;7.904;2022-12-29T05:45:18;9.18;;;1.50;;
10473;SDS011;5284;50.446;7.904;2022-12-29T05:50:47;2.25;;;1.30;;
10473;SDS011;5284;50.446;7.904;2022-12-29T05:55:57;6.47;;;1.35;;
10473;SDS011;5284;50.446;7.904;2022-12-29T06:01:00;6.97;;;1.63;;
10473;SDS011;5284;50.446;7.904;2022-12-29T06:06:03;4.22;;;1.63;;
10473;SDS011;5284;50.446;7.904;2022-12-29T06:11:08;4.15;;;1.13;;
10473;SDS011;5284;50.446;7.904;2022-12-29T06:16:12;3.65;;;1.27;;
10473;SDS011;5284;50.446;7.904;2022-12-29T06:21:19;4.43;;;1.40;;
10473;SDS011;5284;50.446;7.904;2022-12-29T06:26:23;3.53;;;1.30;;
10473;SDS011;5284;50.446;7.904;2022-12-29T06:31:26;2.63;;;1.45;;
10473;SDS011;5284;50.446;7.904;2022-12-29T06:36:29;2.40;;;1.40;;
10473;SDS011;5284;50.446;7.904;2022-12-29T06:41:33;4.43;;;1.30;;
10473;SDS011;5284;50.446;7.904;2022-12-29T06:47:04;5.07;;;1.40;;
10473;SDS011;5284;50.446;7.904;2022-12-29T06:52:07;3.67;;;2.15;;
10473;SDS011;5284;50.446;7.904;2022-12-29T06:57:15;3.80;;;1.45;;
10473;SDS011;5284;50.446;7.904;2022-12-29T07:02:18;3.90;;;2.10;;
10473;SDS011;5284;50.446;7.904;2022-12-29T07:07:21;3.80;;;1.52;;
10473;SDS011;5284;50.446;7.904;2022-12-29T07:12:25;4.13;;;1.08;;
10473;SDS011;5284;50.446;7.904;2022-12-29T07:17:28;2.28;;;1.42;;
10473;SDS011;5284;50.446;7.904;2022-12-29T07:22:31;3.78;;;1.60;;
10473;SDS011;5284;50.446;7.904;2022-12-29T07:27:35;2.47;;;1.42;;
10473;SDS011;5284;50.446;7.904;2022-12-29T07:32:38;1.27;;;0.90;;
10473;SDS011;5284;50.446;7.904;2022-12-29T07:37:41;4.57;;;2.97;;
10473;SDS011;5284;50.446;7.904;2022-12-29T07:42:45;3.35;;;1.20;;
10473;SDS011;5284;50.446;7.904;2022-12-29T07:47:50;5.07;;;1.17;;
10473;SDS011;5284;50.446;7.904;2022-12-29T07:52:52;3.80;;;0.93;;
10473;SDS011;5284;50.446;7.904;2022-12-29T07:57:57;1.58;;;1.00;;
10473;SDS011;5284;50.446;7.904;2022-12-29T08:02:59;2.90;;;1.40;;
10473;SDS011;5284;50.446;7.904;2022-12-29T08:08:03;1.00;;;0.70;;
10473;SDS011;5284;50.446;7.904;2022-12-29T08:13:08;4.72;;;0.80;;
10473;SDS011;5284;50.446;7.904;2022-12-29T08:18:11;1.05;;;0.77;;
10473;SDS011;5284;50.446;7.904;2022-12-29T08:23:14;0.80;;;0.60;;
10473;SDS011;5284;50.446;7.904;2022-12-29T08:28:19;3.05;;;1.50;;
10473;SDS011;5284;50.446;7.904;2022-12-29T08:33:22;3.97;;;1.17;;
10473;SDS011;5284;50.446;7.904;2022-12-29T08:38:24;13.25;;;1.73;;
10473;SDS011;5284;50.446;7.904;2022-12-29T08:43:29;1.45;;;1.08;;
10473;SDS011;5284;50.446;7.904;2022-12-29T08:48:32;1.42;;;0.88;;
10473;SDS011;5284;50.446;7.904;2022-12-29T08:53:34;1.92;;;1.23;;
10473;SDS011;5284;50.446;7.904;2022-12-29T08:58:39;4.53;;;2.22;;
10473;SDS011;5284;50.446;7.904;2022-12-29T09:03:42;2.58;;;1.20;;
10473;SDS011;5284;50.446;7.904;2022-12-29T09:09:05;2.55;;;0.70;;
10473;SDS011;5284;50.446;7.904;2022-12-29T09:14:09;1.35;;;0.80;;
10473;SDS011;5284;50.446;7.904;2022-12-29T09:19:13;0.70;;;0.70;;
10473;SDS011;5284;50.446;7.904;2022-12-29T09:24:16;3.45;;;0.60;;
10473;SDS011;5284;50.446;7.904;2022-12-29T09:29:20;1.98;;;0.50;;
10473;SDS011;5284;50.446;7.904;2022-12-29T09:34:23;2.33;;;0.90;;
10473;SDS011;5284;50.446;7.904;2022-12-29T09:39:27;3.22;;;0.70;;
10473;SDS011;5284;50.446;7.904;2022-12-29T09:44:36;10.02;;;2.83;;
10473;SDS011;5284;50.446;7.904;2022-12-29T09:49:52;3.08;;;0.88;;
10473;SDS011;5284;50.446;7.904;2022-12-29T09:54:58;0.70;;;0.60;;
10473;SDS011;5284;50.446;7.904;2022-12-29T10:00:14;4.30;;;0.80;;
10473;SDS011;5284;50.446;7.904;2022-12-29T10:05:27;1.40;;;0.70;;
10473;SDS011;5284;50.446;7.904;2022-12-29T10:10:38;3.40;;;0.90;;
10473;SDS011;5284;50.446;7.904;2022-12-29T10:15:49;2.33;;;0.70;;
10473;SDS011;5284;50.446;7.904;2022-12-29T10:21:02;3.40;;;0.70;;
10473;SDS011;5284;50.446;7.904;2022-12-29T10:26:13;2.90;;;0.88;;
10473;SDS011;5284;50.446;7.904;2022-12-29T10:31:20;4.53;;;0.80;;
10473;SDS011;5284;50.446;7.904;2022-12-29T10:36:27;9.70;;;1.35;;
10473;SDS011;5284;50.446;7.904;2022-12-29T10:41:37;5.55;;;1.20;;
10473;SDS011;5284;50.446;7.904;2022-12-29T10:46:45;7.60;;;1.73;;
10473;SDS011;5284;50.446;7.904;2022-12-29T10:51:54;2.28;;;1.33;;
10473;SDS011;5284;50.446;7.904;2022-12-29T10:57:01;4.78;;;1.35;;
10473;SDS011;5284;50.446;7.904;2022-12-29T11:02:16;2.03;;;1.27;;
10473;SDS011;5284;50.446;7.904;2022-12-29T11:07:37;3.10;;;1.08;;
10473;SDS011;5284;50.446;7.904;2022-12-29T11:12:40;9.73;;;1.25;;
10473;SDS011;5284;50.446;7.904;2022-12-29T11:17:47;4.35;;;1.20;;
10473;SDS011;5284;50.446;7.904;2022-12-29T11:22:52;3.55;;;0.90;;
10473;SDS011;5284;50.446;7.904;2022-12-29T11:27:56;5.75;;;1.25;;
10473;SDS011;5284;50.446;7.904;2022-12-29T11:33:03;3.25;;;1.38;;
10473;SDS011;5284;50.446;7.904;2022-12-29T11:38:16;6.93;;;1.33;;
10473;SDS011;5284;50.446;7.904;2022-12-29T11:43:23;5.22;;;1.20;;
10473;SDS011;5284;50.446;7.904;2022-12-29T11:48:38;8.30;;;1.60;;
10473;SDS011;5284;50.446;7.904;2022-12-29T11:53:47;4.90;;;1.48;;
10473;SDS011;5284;50.446;7.904;2022-12-29T11:58:55;3.67;;;1.27;;
10473;SDS011;5284;50.446;7.904;2022-12-29T12:04:00;4.53;;;1.08;;
10473;SDS011;5284;50.446;7.904;2022-12-29T12:09:10;10.35;;;1.30;;
10473;SDS011;5284;50.446;7.904;2022-12-29T12:14:20;10.55;;;1.70;;
10473;SDS011;5284;50.446;7.904;2022-12-29T12:20:00;7.32;;;1.25;;
10473;SDS011;5284;50.446;7.904;2022-12-29T12:25:16;11.13;;;2.53;;
10473;SDS011;5284;50.446;7.904;2022-12-29T12:30:23;6.90;;;1.40;;
10473;SDS011;5284;50.446;7.904;2022-12-29T12:35:31;13.13;;;1.80;;
10473;SDS011;5284;50.446;7.904;2022-12-29T12:40:48;8.55;;;2.03;;
10473;SDS011;5284;50.446;7.904;2022-12-29T12:46:19;8.73;;;1.55;;
10473;SDS011;5284;50.446;7.904;2022-12-29T12:51:38;10.15;;;1.52;;
10473;SDS011;5284;50.446;7.904;2022-12-29T12:56:52;18.02;;;7.32;;
10473;SDS011;5284;50.446;7.904;2022-12-29T13:02:10;23.05;;;5.60;;
10473;SDS011;5284;50.446;7.904;2022-12-29T13:07:33;10.95;;;2.15;;
10473;SDS011;5284;50.446;7.904;2022-12-29T13:12:52;6.88;;;1.35;;
10473;SDS011;5284;50.446;7.904;2022-12-29T13:18:06;10.70;;;1.98;;
10473;SDS011;5284;50.446;7.904;2022-12-29T13:23:24;8.90;;;4.15;;
10473;SDS011;5284;50.446;7.904;2022-12-29T13:28:35;12.35;;;2.05;;
10473;SDS011;5284;50.446;7.904;2022-12-29T13:33:48;9.35;;;2.55;;
10473;SDS011;5284;50.446;7.904;2022-12-29T13:39:03;11.70;;;3.65;;
10473;SDS011;5284;50.446;7.904;2022-12-29T13:44:22;12.43;;;3.80;;
10473;SDS011;5284;50.446;7.904;2022-12-29T13:49:32;15.52;;;5.72;;
10473;SDS011;5284;50.446;7.904;2022-12-29T13:54:40;17.63;;;2.60;;
10473;SDS011;5284;50.446;7.904;2022-12-29T13:59:48;6.30;;;1.65;;
10473;SDS011;5284;50.446;7.904;2022-12-29T14:04:57;17.98;;;4.80;;
10473;SDS011;5284;50.446;7.904;2022-12-29T14:10:18;14.30;;;2.33;;
10473;SDS011;5284;50.446;7.904;2022-12-29T14:15:30;8.75;;;1.95;;
10473;SDS011;5284;50.446;7.904;2022-12-29T14:20:33;10.38;;;2.50;;
10473;SDS011;5284;50.446;7.904;2022-12-29T14:31:00;18.48;;;3.78;;
10473;SDS011;5284;50.446;7.904;2022-12-29T14:36:20;14.25;;;2.58;;
10473;SDS011;5284;50.446;7.904;2022-12-29T14:41:30;13.63;;;2.17;;
10473;SDS011;5284;50.446;7.904;2022-12-29T14:46:44;14.02;;;3.95;;
10473;SDS011;5284;50.446;7.904;2022-12-29T14:51:50;21.02;;;6.82;;
10473;SDS011;5284;50.446;7.904;2022-12-29T14:56:58;13.35;;;2.85;;
10473;SDS011;5284;50.446;7.904;2022-12-29T15:02:03;7.18;;;3.13;;
10473;SDS011;5284;50.446;7.904;2022-12-29T15:07:16;16.63;;;5.70;;
10473;SDS011;5284;50.446;7.904;2022-12-29T15:12:29;11.30;;;2.25;;
10473;SDS011;5284;50.446;7.904;2022-12-29T15:17:38;11.98;;;1.60;;
10473;SDS011;5284;50.446;7.904;2022-12-29T15:22:41;10.02;;;2.17;;
10473;SDS011;5284;50.446;7.904;2022-12-29T15:27:51;11.27;;;2.58;;
10473;SDS011;5284;50.446;7.904;2022-12-29T15:32:56;10.05;;;1.90;;
10473;SDS011;5284;50.446;7.904;2022-12-29T15:37:59;16.42;;;2.25;;
10473;SDS011;5284;50.446;7.904;2022-12-29T15:43:22;13.65;;;2.22;;
10473;SDS011;5284;50.446;7.904;2022-12-29T15:48:34;9.73;;;2.70;;
10473;SDS011;5284;50.446;7.904;2022-12-29T15:53:38;8.95;;;1.73;;
10473;SDS011;5284;50.446;7.904;2022-12-29T15:58:43;15.82;;;5.22;;
10473;SDS011;5284;50.446;7.904;2022-12-29T16:03:48;10.63;;;3.15;;
10473;SDS011;5284;50.446;7.904;2022-12-29T16:08:55;9.35;;;2.33;;
10473;SDS011;5284;50.446;7.904;2022-12-29T16:14:00;21.17;;;2.43;;
10473;SDS011;5284;50.446;7.904;2022-12-29T16:19:08;15.13;;;5.03;;
10473;SDS011;5284;50.446;7.904;2022-12-29T16:24:16;18.05;;;2.22;;
10473;SDS011;5284;50.446;7.904;2022-12-29T16:29:25;12.40;;;2.25;;
10473;SDS011;5284;50.446;7.904;2022-12-29T16:34:32;14.07;;;3.50;;
10473;SDS011;5284;50.446;7.904;2022-12-29T16:39:44;12.88;;;2.60;;
10473;SDS011;5284;50.446;7.904;2022-12-29T16:44:48;18.80;;;2.10;;
10473;SDS011;5284;50.446;7.904;2022-12-29T16:49:52;8.57;;;2.13;;
10473;SDS011;5284;50.446;7.904;2022-12-29T16:54:56;12.52;;;1.70;;
10473;SDS011;5284;50.446;7.904;2022-12-29T17:00:05;22.03;;;5.53;;
10473;SDS011;5284;50.446;7.904;2022-12-29T17:05:13;19.70;;;2.38;;
10473;SDS011;5284;50.446;7.904;2022-12-29T17:10:16;11.40;;;2.70;;
10473;SDS011;5284;50.446;7.904;2022-12-29T17:15:23;9.57;;;2.67;;
10473;SDS011;5284;50.446;7.904;2022-12-29T17:20:29;12.63;;;3.25;;
10473;SDS011;5284;50.446;7.904;2022-12-29T17:25:33;13.85;;;2.00;;
10473;SDS011;5284;50.446;7.904;2022-12-29T17:30:40;15.55;;;2.38;;
10473;SDS011;5284;50.446;7.904;2022-12-29T17:35:43;11.65;;;2.50;;
10473;SDS011;5284;50.446;7.904;2022-12-29T17:40:53;9.68;;;2.50;;
10473;SDS011;5284;50.446;7.904;2022-12-29T17:45:57;18.85;;;4.80;;
10473;SDS011;5284;50.446;7.904;2022-12-29T17:51:01;16.60;;;3.72;;
10473;SDS011;5284;50.446;7.904;2022-12-29T17:56:04;14.55;;;3.38;;
10473;SDS011;5284;50.446;7.904;2022-12-29T18:01:09;23.65;;;5.97;;
10473;SDS011;5284;50.446;7.904;2022-12-29T18:06:13;19.15;;;6.47;;
10473;SDS011;5284;50.446;7.904;2022-12-29T18:11:19;19.25;;;5.70;;
10473;SDS011;5284;50.446;7.904;2022-12-29T18:16:26;18.70;;;4.85;;
10473;SDS011;5284;50.446;7.904;2022-12-29T18:21:29;17.25;;;5.28;;
10473;SDS011;5284;50.446;7.904;2022-12-29T18:26:32;17.70;;;2.17;;
10473;SDS011;5284;50.446;7.904;2022-12-29T18:31:37;17.85;;;2.85;;
10473;SDS011;5284;50.446;7.904;2022-12-29T18:36:40;17.67;;;2.90;;
10473;SDS011;5284;50.446;7.904;2022-12-29T18:41:43;16.17;;;3.20;;
10473;SDS011;5284;50.446;7.904;2022-12-29T18:46:47;25.20;;;3.58;;
10473;SDS011;5284;50.446;7.904;2022-12-29T18:51:50;23.40;;;3.70;;
10473;SDS011;5284;50.446;7.904;2022-12-29T18:56:53;22.33;;;3.85;;
10473;SDS011;5284;50.446;7.904;2022-12-29T19:01:58;21.30;;;4.35;;
10473;SDS011;5284;50.446;7.904;2022-12-29T19:07:01;44.75;;;14.23;;
10473;SDS011;5284;50.446;7.904;2022-12-29T19:12:04;19.42;;;4.53;;
10473;SDS011;5284;50.446;7.904;2022-12-29T19:17:09;25.00;;;8.18;;
10473;SDS011;5284;50.446;7.904;2022-12-29T19:22:15;29.67;;;7.88;;
10473;SDS011;5284;50.446;7.904;2022-12-29T19:27:18;16.40;;;2.50;;
10473;SDS011;5284;50.446;7.904;2022-12-29T19:32:23;21.77;;;2.22;;
10473;SDS011;5284;50.446;7.904;2022-12-29T19:37:25;16.98;;;3.08;;
10473;SDS011;5284;50.446;7.904;2022-12-29T19:42:29;24.13;;;2.58;;
10473;SDS011;5284;50.446;7.904;2022-12-29T19:47:33;14.25;;;3.60;;
10473;SDS011;5284;50.446;7.904;2022-12-29T19:52:36;39.58;;;8.93;;
10473;SDS011;5284;50.446;7.904;2022-12-29T19:57:39;15.48;;;5.88;;
10473;SDS011;5284;50.446;7.904;2022-12-29T20:02:44;21.35;;;4.78;;
10473;SDS011;5284;50.446;7.904;2022-12-29T20:07:49;17.35;;;2.92;;
10473;SDS011;5284;50.446;7.904;2022-12-29T20:12:52;15.23;;;2.90;;
10473;SDS011;5284;50.446;7.904;2022-12-29T20:17:56;16.13;;;3.15;;
10473;SDS011;5284;50.446;7.904;2022-12-29T20:23:15;26.27;;;3.13;;
10473;SDS011;5284;50.446;7.904;2022-12-29T20:28:18;17.35;;;2.75;;
10473;SDS011;5284;50.446;7.904;2022-12-29T20:33:22;19.77;;;3.50;;
10473;SDS011;5284;50.446;7.904;2022-12-29T20:38:25;20.90;;;3.92;;
10473;SDS011;5284;50.446;7.904;2022-12-29T20:43:28;10.65;;;3.58;;
10473;SDS011;5284;50.446;7.904;2022-12-29T20:48:32;16.15;;;4.20;;
10473;SDS011;5284;50.446;7.904;2022-12-29T20:53:37;22.60;;;7.43;;
10473;SDS011;5284;50.446;7.904;2022-12-29T20:58:41;36.03;;;7.07;;
10473;SDS011;5284;50.446;7.904;2022-12-29T21:04:05;16.83;;;4.22;;
10473;SDS011;5284;50.446;7.904;2022-12-29T21:09:09;27.08;;;3.42;;
10473;SDS011;5284;50.446;7.904;2022-12-29T21:14:12;14.68;;;3.17;;
10473;SDS011;5284;50.446;7.904;2022-12-29T21:19:16;18.80;;;3.65;;
10473;SDS011;5284;50.446;7.904;2022-12-29T21:24:19;27.00;;;3.90;;
10473;SDS011;5284;50.446;7.904;2022-12-29T21:29:22;19.73;;;3.78;;
10473;SDS011;5284;50.446;7.904;2022-12-29T21:34:26;9.15;;;2.53;;
10473;SDS011;5284;50.446;7.904;2022-12-29T21:39:29;20.63;;;3.13;;
10473;SDS011;5284;50.446;7.904;2022-12-29T21:44:32;19.27;;;3.00;;
10473;SDS011;5284;50.446;7.904;2022-12-29T21:49:54;19.75;;;3.33;;
10473;SDS011;5284;50.446;7.904;2022-12-29T21:54:57;19.20;;;4.10;;
10473;SDS011;5284;50.446;7.904;2022-12-29T22:05:27;25.48;;;3.88;;
10473;SDS011;5284;50.446;7.904;2022-12-29T22:10:50;16.60;;;2.33;;
10473;SDS011;5284;50.446;7.904;2022-12-29T22:16:10;15.63;;;3.95;;
10473;SDS011;5284;50.446;7.904;2022-12-29T22:21:15;12.75;;;3.42;;
10473;SDS011;5284;50.446;7.904;2022-12-29T22:26:18;15.68;;;2.60;;
10473;SDS011;5284;50.446;7.904;2022-12-29T22:31:22;11.40;;;1.88;;
10473;SDS011;5284;50.446;7.904;2022-12-29T22:41:33;34.67;;;3.00;;
10473;SDS011;5284;50.446;7.904;2022-12-29T22:46:36;19.05;;;2.22;;
10473;SDS011;5284;50.446;7.904;2022-12-29T22:51:40;16.95;;;2.95;;
10473;SDS011;5284;50.446;7.904;2022-12-29T22:56:43;19.77;;;3.30;;
10473;SDS011;5284;50.446;7.904;2022-12-29T23:01:46;11.88;;;2.53;;
10473;SDS011;5284;50.446;7.904;2022-12-29T23:06:51;20.65;;;3.25;;
10473;SDS011;5284;50.446;7.904;2022-12-29T23:11:53;17.23;;;2.22;;
10473;SDS011;5284;50.446;7.904;2022-12-29T23:16:56;24.80;;;7.15;;
10473;SDS011;5284;50.446;7.904;2022-12-29T23:22:01;13.18;;;2.35;;
10473;SDS011;5284;50.446;7.904;2022-12-29T23:27:04;30.50;;;5.25;;
10473;SDS011;5284;50.446;7.904;2022-12-29T23:32:07;13.88;;;3.67;;
10473;SDS011;5284;50.446;7.904;2022-12-29T23:37:11;19.95;;;2.97;;
10473;SDS011;5284;50.446;7.904;2022-12-29T23:42:14;23.33;;;4.55;;
10473;SDS011;5284;50.446;7.904;2022-12-29T23:47:17;17.85;;;3.55;;
10473;SDS011;5284;50.446;7.904;2022-12-29T23:52:21;25.73;;;3.83;;
10473;SDS011;5284;50.446;7.904;2022-12-29T23:57:24;20.65;;;2.90;;
